Time;durP1;ratioP1;P1;durP2;ratioP2;P2;SDS_P1;SDS_P2;PMS_P1;PMS_P2;Temp;Humidity;BMP_temperature;BMP_pressure;BME280_temperature;BME280_humidity;BME280_pressure;Samples;Min_cycle;Max_cycle;Signal;HPM_P1;HPM_P2
2024/03/29 00:00:55;;;;;;;0.50;0.50;;;11.20;99.90;;;;;;4964494;28;20117;-62
2024/03/29 00:03:22;;;;;;;1.50;0.40;;;11.20;99.90;;;;;;4965245;28;20487;-62
2024/03/29 00:05:47;;;;;;;5.25;0.50;;;11.20;99.90;;;;;;4959698;28;20494;-61
2024/03/29 00:08:13;;;;;;;2.55;0.43;;;11.20;99.90;;;;;;4976384;28;20058;-62
2024/03/29 00:10:39;;;;;;;0.93;0.77;;;11.30;99.90;;;;;;4963530;28;20124;-62
2024/03/29 00:13:05;;;;;;;1.05;0.45;;;11.30;99.90;;;;;;4967575;28;20051;-62
2024/03/29 00:15:34;;;;;;;0.30;0.30;;;11.20;99.90;;;;;;4965585;28;20045;-62
2024/03/29 00:18:00;;;;;;;0.95;0.38;;;11.20;99.90;;;;;;4963349;28;20070;-62
2024/03/29 00:20:25;;;;;;;0.32;0.32;;;11.20;99.90;;;;;;4957408;28;20135;-62
2024/03/29 00:22:51;;;;;;;0.88;0.40;;;11.20;99.90;;;;;;4982779;28;20070;-62
2024/03/29 00:25:17;;;;;;;1.27;0.55;;;11.40;99.90;;;;;;4968199;28;20080;-62
2024/03/29 00:27:48;;;;;;;1.58;0.60;;;11.40;99.90;;;;;;4961826;28;20499;-62
2024/03/29 00:30:14;;;;;;;0.35;0.35;;;11.40;99.90;;;;;;4968635;28;21425;-62
2024/03/29 00:32:40;;;;;;;1.38;0.50;;;11.60;99.90;;;;;;4976742;28;20051;-62
2024/03/29 00:35:06;;;;;;;0.40;0.32;;;11.70;99.90;;;;;;4961762;28;20058;-62
2024/03/29 00:37:32;;;;;;;0.65;0.38;;;11.90;99.90;;;;;;4962439;28;20053;-62
2024/03/29 00:39:58;;;;;;;1.13;0.47;;;11.90;99.90;;;;;;4963359;28;20047;-62
2024/03/29 00:42:24;;;;;;;4.32;0.50;;;11.80;99.90;;;;;;4971056;28;20454;-62
2024/03/29 00:44:50;;;;;;;1.00;0.50;;;11.80;99.90;;;;;;4961043;28;20059;-62
2024/03/29 00:47:16;;;;;;;1.08;0.45;;;11.90;99.90;;;;;;4962980;28;20058;-62
2024/03/29 00:49:42;;;;;;;2.67;0.60;;;11.80;99.90;;;;;;4962845;28;20137;-62
2024/03/29 00:52:07;;;;;;;1.17;0.50;;;11.70;99.90;;;;;;4961120;28;20062;-62
2024/03/29 00:54:33;;;;;;;1.48;0.85;;;11.80;99.90;;;;;;4968358;28;20038;-62
2024/03/29 00:56:59;;;;;;;0.95;0.40;;;11.70;99.90;;;;;;4969029;28;20054;-62
2024/03/29 00:59:25;;;;;;;0.50;0.40;;;11.70;99.90;;;;;;4957919;28;20105;-62
2024/03/29 01:01:51;;;;;;;0.35;0.30;;;11.80;99.90;;;;;;4960848;28;20475;-62
2024/03/29 01:04:17;;;;;;;0.73;0.40;;;11.80;99.90;;;;;;4960498;28;20051;-62
2024/03/29 01:06:43;;;;;;;0.63;0.40;;;12.00;99.90;;;;;;4967679;28;20231;-61
2024/03/29 01:09:13;;;;;;;0.40;0.30;;;12.10;99.90;;;;;;4965270;28;20058;-62
2024/03/29 01:11:39;;;;;;;0.50;0.40;;;12.10;99.90;;;;;;4959058;28;20062;-62
2024/03/29 01:14:08;;;;;;;2.17;0.70;;;12.00;99.90;;;;;;4961583;28;20055;-62
2024/03/29 01:16:33;;;;;;;0.32;0.32;;;12.10;99.90;;;;;;4963275;28;20065;-62
2024/03/29 01:18:59;;;;;;;1.45;0.40;;;12.00;99.90;;;;;;4982053;28;20558;-61
2024/03/29 01:21:28;;;;;;;0.43;0.40;;;12.00;99.90;;;;;;4959686;28;20050;-62
2024/03/29 01:23:54;;;;;;;0.50;0.40;;;12.00;99.90;;;;;;4959883;28;20066;-62
2024/03/29 01:26:20;;;;;;;0.30;0.30;;;12.10;99.90;;;;;;4960050;28;20418;-62
2024/03/29 01:28:46;;;;;;;3.85;0.60;;;12.20;99.90;;;;;;4954266;28;20061;-62
2024/03/29 01:31:12;;;;;;;1.38;0.30;;;12.40;99.90;;;;;;4961948;28;20050;-62
2024/03/29 01:33:40;;;;;;;0.73;0.30;;;12.50;99.90;;;;;;4965349;28;20054;-62
2024/03/29 01:36:07;;;;;;;0.40;0.40;;;12.50;99.90;;;;;;4955790;28;20044;-62
2024/03/29 01:38:33;;;;;;;0.65;0.50;;;12.40;99.90;;;;;;4965145;28;20512;-62
2024/03/29 01:40:59;;;;;;;0.73;0.30;;;12.20;99.90;;;;;;4958700;28;20046;-62
2024/03/29 01:43:27;;;;;;;1.58;0.32;;;12.10;99.80;;;;;;4961548;28;20321;-62
2024/03/29 01:45:54;;;;;;;0.35;0.20;;;12.20;99.40;;;;;;4961300;28;20061;-62
2024/03/29 01:48:24;;;;;;;0.90;0.40;;;12.40;98.90;;;;;;4950108;28;20051;-62
2024/03/29 01:50:52;;;;;;;0.40;0.40;;;12.30;99.30;;;;;;4951579;28;20520;-62
2024/03/29 01:53:20;;;;;;;0.82;0.25;;;12.50;98.90;;;;;;4959743;28;20046;-62
2024/03/29 01:55:46;;;;;;;0.22;0.22;;;12.60;98.60;;;;;;4954771;28;20051;-62
2024/03/29 01:58:12;;;;;;;0.28;0.28;;;12.60;98.70;;;;;;4955768;28;20051;-62
2024/03/29 02:00:52;;;;;;;0.30;0.30;;;12.60;98.50;;;;;;4952170;28;20492;-62
2024/03/29 02:03:18;;;;;;;0.70;0.38;;;12.50;98.90;;;;;;4959398;28;20058;-62
2024/03/29 02:05:45;;;;;;;1.00;0.40;;;12.50;98.80;;;;;;4954971;28;20635;-62
2024/03/29 02:08:11;;;;;;;0.50;0.30;;;12.40;99.40;;;;;;4958354;28;20062;-62
2024/03/29 02:10:37;;;;;;;0.30;0.30;;;12.60;99.40;;;;;;4974197;28;20179;-62
2024/03/29 02:13:03;;;;;;;0.20;0.20;;;12.70;99.00;;;;;;4960153;28;20050;-62
2024/03/29 02:15:31;;;;;;;1.27;0.30;;;12.80;99.20;;;;;;4952632;28;20408;-62
2024/03/29 02:17:57;;;;;;;0.30;0.30;;;12.80;98.90;;;;;;4963520;28;20113;-62
2024/03/29 02:20:23;;;;;;;0.70;0.30;;;12.90;98.80;;;;;;4961567;28;20531;-62
2024/03/29 02:23:02;;;;;;;0.43;0.35;;;12.90;99.00;;;;;;4959968;28;20066;-62
2024/03/29 02:25:28;;;;;;;0.65;0.43;;;13.00;99.00;;;;;;4960868;28;20061;-62
2024/03/29 02:27:54;;;;;;;4.78;1.35;;;12.90;99.10;;;;;;4963269;28;20082;-62
2024/03/29 02:30:20;;;;;;;0.30;0.30;;;12.80;99.20;;;;;;4949709;28;20339;-62
2024/03/29 02:32:47;;;;;;;0.55;0.40;;;12.80;99.00;;;;;;4944341;28;20054;-62
2024/03/29 02:35:12;;;;;;;0.43;0.30;;;13.00;98.70;;;;;;4956407;28;20058;-62
2024/03/29 02:37:38;;;;;;;0.75;0.65;;;13.10;98.40;;;;;;4958801;28;20047;-62
2024/03/29 02:40:05;;;;;;;0.55;0.30;;;13.00;98.50;;;;;;4955910;28;20059;-62
2024/03/29 02:42:32;;;;;;;0.68;0.40;;;13.10;98.70;;;;;;4955982;28;20521;-62
2024/03/29 02:44:58;;;;;;;0.43;0.40;;;13.10;99.00;;;;;;4958555;28;20062;-62
2024/03/29 02:47:24;;;;;;;1.95;0.30;;;13.10;99.00;;;;;;4954806;28;20054;-62
2024/03/29 02:49:49;;;;;;;0.73;0.40;;;13.00;99.10;;;;;;4955395;28;20054;-62
2024/03/29 02:52:15;;;;;;;0.30;0.30;;;13.00;99.20;;;;;;4981539;28;20109;-62
2024/03/29 02:54:41;;;;;;;0.93;0.40;;;13.10;98.80;;;;;;4959021;28;20051;-62
2024/03/29 02:57:07;;;;;;;0.40;0.30;;;13.10;99.40;;;;;;4957130;28;20039;-62
2024/03/29 02:59:33;;;;;;;0.45;0.30;;;13.10;99.10;;;;;;4952656;28;20053;-62
2024/03/29 03:01:59;;;;;;;1.48;0.47;;;13.10;99.40;;;;;;4960722;28;20047;-62
2024/03/29 03:04:25;;;;;;;2.35;0.40;;;13.10;99.90;;;;;;4948176;28;20058;-62
2024/03/29 03:06:51;;;;;;;0.70;0.40;;;13.10;99.30;;;;;;4954084;28;20146;-62
2024/03/29 03:12:01;;;;;;;0.30;0.30;;;13.10;99.50;;;;;;4965249;28;20188;-62
2024/03/29 03:14:27;;;;;;;0.95;0.43;;;13.10;99.40;;;;;;4959673;28;20273;-62
2024/03/29 03:16:53;;;;;;;0.30;0.30;;;13.10;99.50;;;;;;4960389;28;20130;-62
2024/03/29 03:19:19;;;;;;;0.20;0.20;;;13.10;99.40;;;;;;4960623;28;20503;-62
2024/03/29 03:21:44;;;;;;;0.45;0.30;;;13.10;99.90;;;;;;4963552;28;20054;-62
2024/03/29 03:24:11;;;;;;;0.30;0.30;;;13.00;99.90;;;;;;4964917;28;20774;-62
2024/03/29 03:26:38;;;;;;;0.32;0.30;;;13.00;99.90;;;;;;4962631;28;20054;-62
2024/03/29 03:29:04;;;;;;;1.17;0.45;;;13.10;99.60;;;;;;4960978;28;20069;-62
2024/03/29 03:31:30;;;;;;;0.20;0.20;;;13.20;99.30;;;;;;4960812;28;20055;-62
2024/03/29 03:33:55;;;;;;;1.25;0.50;;;13.30;99.50;;;;;;4962058;28;20050;-62
2024/03/29 03:36:21;;;;;;;1.35;0.40;;;13.40;99.30;;;;;;4964876;28;20717;-62
2024/03/29 03:38:47;;;;;;;0.65;0.30;;;13.40;99.40;;;;;;4966231;28;20046;-62
2024/03/29 03:41:12;;;;;;;0.50;0.30;;;13.50;99.10;;;;;;4964618;28;22527;-62
2024/03/29 03:43:38;;;;;;;0.57;0.47;;;13.50;99.10;;;;;;4967167;28;20050;-62
2024/03/29 03:46:04;;;;;;;1.80;0.32;;;13.50;99.10;;;;;;4962911;28;20067;-62
2024/03/29 03:48:30;;;;;;;0.47;0.43;;;13.40;99.50;;;;;;4958871;28;20044;-62
2024/03/29 03:50:56;;;;;;;1.02;0.40;;;13.50;99.20;;;;;;4959677;28;20046;-62
2024/03/29 03:53:22;;;;;;;1.95;0.20;;;13.50;99.30;;;;;;4962808;28;20051;-62
2024/03/29 03:55:48;;;;;;;1.40;0.40;;;13.50;99.20;;;;;;4959799;28;20113;-62
2024/03/29 03:58:14;;;;;;;0.52;0.40;;;13.50;99.20;;;;;;4954538;28;20749;-62
2024/03/29 04:00:40;;;;;;;0.73;0.32;;;13.60;99.40;;;;;;4953631;28;20055;-62
2024/03/29 04:03:06;;;;;;;0.75;0.40;;;13.50;99.90;;;;;;4958837;28;20055;-62
2024/03/29 04:05:32;;;;;;;0.77;0.60;;;13.40;99.60;;;;;;4959282;28;20050;-62
2024/03/29 04:07:58;;;;;;;0.60;0.30;;;13.60;99.40;;;;;;4956821;28;20149;-62
2024/03/29 04:10:24;;;;;;;0.38;0.32;;;13.70;99.60;;;;;;4954338;28;20051;-62
2024/03/29 04:12:53;;;;;;;0.30;0.30;;;13.90;99.80;;;;;;4956250;28;20054;-61
2024/03/29 04:15:18;;;;;;;1.55;0.35;;;14.00;99.60;;;;;;4956255;28;20065;-62
2024/03/29 04:17:44;;;;;;;0.73;0.35;;;14.00;99.90;;;;;;4981661;28;20074;-62
2024/03/29 04:20:10;;;;;;;0.65;0.30;;;13.90;99.90;;;;;;4957399;28;20053;-62
2024/03/29 04:22:36;;;;;;;0.98;0.30;;;13.90;99.90;;;;;;4955422;28;20043;-62
2024/03/29 04:25:02;;;;;;;0.30;0.30;;;14.00;99.80;;;;;;4958947;28;20089;-62
2024/03/29 04:27:28;;;;;;;3.20;0.60;;;13.90;99.90;;;;;;4955728;28;20055;-62
2024/03/29 04:29:54;;;;;;;1.63;0.38;;;13.80;99.90;;;;;;4986484;28;20088;-62
2024/03/29 04:32:20;;;;;;;1.85;0.43;;;13.80;99.90;;;;;;4960800;28;20050;-62
2024/03/29 04:34:50;;;;;;;1.17;0.30;;;13.70;99.90;;;;;;4955885;28;20415;-62
2024/03/29 04:37:16;;;;;;;1.65;0.30;;;13.70;99.90;;;;;;4958143;28;20062;-62
2024/03/29 04:39:43;;;;;;;0.40;0.40;;;13.70;99.90;;;;;;4959609;28;20395;-62
2024/03/29 04:42:09;;;;;;;1.65;0.30;;;13.70;99.90;;;;;;4960698;28;20069;-62
2024/03/29 04:44:35;;;;;;;0.50;0.40;;;13.50;99.90;;;;;;4952853;28;20051;-62
2024/03/29 04:47:01;;;;;;;0.40;0.30;;;13.50;99.90;;;;;;4959808;28;20134;-62
2024/03/29 04:49:39;;;;;;;3.58;0.82;;;13.50;99.90;;;;;;4957356;28;20110;-62
2024/03/29 04:52:08;;;;;;;0.70;0.50;;;13.50;99.90;;;;;;4956352;28;20727;-62
2024/03/29 04:54:34;;;;;;;0.50;0.50;;;13.70;99.90;;;;;;4957002;28;20043;-62
2024/03/29 04:57:06;;;;;;;1.25;0.50;;;13.90;99.90;;;;;;4960138;28;20100;-62
2024/03/29 04:59:32;;;;;;;0.38;0.30;;;13.90;99.90;;;;;;4954193;28;20043;-62
2024/03/29 05:02:02;;;;;;;0.50;0.45;;;13.90;99.90;;;;;;4958644;28;20054;-61
2024/03/29 05:04:28;;;;;;;1.33;0.57;;;13.90;99.90;;;;;;4956149;28;20054;-62
2024/03/29 05:06:57;;;;;;;0.75;0.40;;;14.00;99.90;;;;;;4982936;28;20412;-62
2024/03/29 05:09:24;;;;;;;0.93;0.52;;;14.00;99.90;;;;;;4956755;28;20050;-62
2024/03/29 05:11:50;;;;;;;2.00;0.45;;;14.10;99.90;;;;;;4954698;28;20062;-62
2024/03/29 05:14:20;;;;;;;0.65;0.40;;;14.10;99.90;;;;;;4953930;28;20130;-62
2024/03/29 05:16:47;;;;;;;1.75;0.43;;;14.10;99.90;;;;;;4958077;28;20055;-62
2024/03/29 05:19:16;;;;;;;0.63;0.45;;;14.00;99.90;;;;;;4959804;28;20054;-62
2024/03/29 05:21:42;;;;;;;2.25;0.70;;;14.10;99.90;;;;;;4954008;28;20051;-62
2024/03/29 05:24:08;;;;;;;0.77;0.50;;;14.00;99.90;;;;;;4958341;28;20059;-62
2024/03/29 05:26:34;;;;;;;0.45;0.30;;;13.90;99.90;;;;;;4955812;28;20049;-62
2024/03/29 05:29:00;;;;;;;0.73;0.35;;;13.80;99.90;;;;;;4955741;28;20050;-62
2024/03/29 05:31:29;;;;;;;0.65;0.40;;;13.70;99.90;;;;;;4954145;28;20109;-62
2024/03/29 05:33:55;;;;;;;0.88;0.35;;;13.70;99.90;;;;;;4956672;28;20055;-62
2024/03/29 05:36:21;;;;;;;0.57;0.50;;;13.70;99.90;;;;;;4953735;28;20061;-62
2024/03/29 05:38:46;;;;;;;0.65;0.40;;;13.70;99.90;;;;;;4956070;28;20047;-63
2024/03/29 05:41:12;;;;;;;1.63;0.40;;;13.60;99.90;;;;;;4956584;28;20098;-62
2024/03/29 05:43:41;;;;;;;0.85;0.40;;;13.60;99.90;;;;;;4953594;28;20051;-60
2024/03/29 05:46:07;;;;;;;0.57;0.40;;;13.60;99.90;;;;;;4956418;28;20061;-62
2024/03/29 05:48:33;;;;;;;0.45;0.43;;;13.50;99.90;;;;;;4960509;28;20057;-61
2024/03/29 05:50:58;;;;;;;0.45;0.35;;;13.50;99.90;;;;;;4958008;28;20146;-62
2024/03/29 05:53:24;;;;;;;1.73;0.77;;;13.40;99.90;;;;;;4954187;28;20104;-62
2024/03/29 05:55:50;;;;;;;1.23;0.43;;;13.40;99.90;;;;;;4954131;28;20079;-62
2024/03/29 05:58:20;;;;;;;3.00;0.85;;;13.40;99.90;;;;;;4955852;28;20062;-62
2024/03/29 06:00:46;;;;;;;2.08;0.50;;;13.30;99.90;;;;;;4956144;28;20064;-62
2024/03/29 06:03:12;;;;;;;1.52;0.80;;;13.20;99.90;;;;;;4958784;28;20054;-62
2024/03/29 06:05:39;;;;;;;1.30;0.57;;;13.10;99.90;;;;;;4973281;28;20055;-62
2024/03/29 06:08:05;;;;;;;1.77;0.70;;;13.10;99.90;;;;;;4952643;28;20540;-62
2024/03/29 06:10:31;;;;;;;0.70;0.70;;;13.00;99.90;;;;;;4948693;28;20062;-62
2024/03/29 06:13:06;;;;;;;2.55;0.80;;;13.00;99.90;;;;;;4955872;28;20081;-62
2024/03/29 06:18:18;;;;;;;3.88;0.70;;;13.00;99.90;;;;;;4958336;28;20121;-61
2024/03/29 06:20:47;;;;;;;2.53;1.20;;;13.00;99.90;;;;;;4958741;28;20109;-62
2024/03/29 06:23:13;;;;;;;2.60;1.33;;;12.90;99.90;;;;;;4955176;28;20050;-62
2024/03/29 06:25:39;;;;;;;2.33;1.08;;;12.80;99.90;;;;;;4957344;28;20121;-62
2024/03/29 06:28:05;;;;;;;4.82;1.10;;;12.70;99.90;;;;;;4982273;28;20059;-62
2024/03/29 06:30:31;;;;;;;2.35;1.00;;;12.50;99.90;;;;;;4953150;28;20507;-62
2024/03/29 06:32:57;;;;;;;3.00;1.23;;;12.30;99.90;;;;;;4957883;28;20050;-62
2024/03/29 06:35:23;;;;;;;3.70;1.10;;;12.20;99.90;;;;;;4957922;28;20089;-62
2024/03/29 06:37:49;;;;;;;3.00;1.40;;;12.10;99.90;;;;;;4956804;28;20555;-62
2024/03/29 06:40:14;;;;;;;2.10;1.02;;;12.10;99.90;;;;;;4960258;28;20058;-62
2024/03/29 06:42:41;;;;;;;2.60;1.02;;;12.10;99.90;;;;;;4958443;28;20047;-61
2024/03/29 06:45:09;;;;;;;2.95;1.25;;;12.10;99.90;;;;;;4959671;28;20059;-61
2024/03/29 06:47:34;;;;;;;2.35;1.30;;;12.00;99.90;;;;;;4960700;28;20042;-61
2024/03/29 06:50:00;;;;;;;1.70;1.00;;;11.80;99.90;;;;;;4975552;28;20070;-62
2024/03/29 06:52:26;;;;;;;2.15;1.02;;;11.80;99.90;;;;;;4953789;28;20138;-62
2024/03/29 06:54:52;;;;;;;3.40;1.08;;;11.80;99.90;;;;;;4960989;28;20598;-62
2024/03/29 06:57:23;;;;;;;2.65;1.23;;;11.80;99.90;;;;;;4962103;28;20065;-61
2024/03/29 06:59:48;;;;;;;1.45;0.90;;;11.90;99.90;;;;;;4957758;28;20050;-61
2024/03/29 07:02:14;;;;;;;2.45;1.02;;;12.00;99.90;;;;;;4979793;28;20078;-62
2024/03/29 07:04:40;;;;;;;7.20;1.35;;;12.00;99.90;;;;;;4976497;28;20062;-62
2024/03/29 07:07:05;;;;;;;2.72;1.10;;;12.00;99.90;;;;;;4960688;28;20106;-61
2024/03/29 07:09:31;;;;;;;4.40;1.25;;;11.90;99.90;;;;;;4982785;28;20157;-61
2024/03/29 07:11:58;;;;;;;7.15;3.22;;;11.90;99.90;;;;;;4958755;28;20054;-62
2024/03/29 07:14:26;;;;;;;3.00;1.67;;;11.70;99.90;;;;;;4960341;28;20039;-61
2024/03/29 07:16:53;;;;;;;1.73;1.00;;;11.60;99.90;;;;;;4958040;28;20058;-62
2024/03/29 07:19:20;;;;;;;2.92;1.88;;;11.60;99.90;;;;;;4963014;28;20090;-60
2024/03/29 07:21:47;;;;;;;2.25;2.05;;;11.60;99.90;;;;;;4959997;28;20055;-61
2024/03/29 07:24:12;;;;;;;4.07;0.80;;;11.50;99.90;;;;;;4962063;28;20062;-61
2024/03/29 07:29:29;;;;;;;1.88;0.70;;;11.50;99.90;;;;;;4990501;28;20049;-61
2024/03/29 07:31:55;;;;;;;3.83;1.00;;;11.70;99.90;;;;;;4980092;28;20062;-61
2024/03/29 07:34:20;;;;;;;1.67;1.58;;;11.80;99.90;;;;;;4969511;28;20483;-61
2024/03/29 07:36:46;;;;;;;1.92;1.00;;;11.90;99.90;;;;;;4976152;28;20058;-61
2024/03/29 07:39:12;;;;;;;1.40;0.60;;;12.00;99.90;;;;;;4978372;28;20057;-61
2024/03/29 07:41:37;;;;;;;1.63;0.80;;;12.00;99.90;;;;;;4975881;28;20054;-61
2024/03/29 07:44:03;;;;;;;1.60;0.93;;;12.00;99.90;;;;;;4973838;28;20069;-61
2024/03/29 07:46:33;;;;;;;4.47;0.90;;;12.10;99.90;;;;;;4969586;28;20058;-61
2024/03/29 07:48:59;;;;;;;3.40;1.10;;;11.80;99.90;;;;;;4982162;28;20050;-61
2024/03/29 07:51:25;;;;;;;3.35;1.30;;;11.90;99.90;;;;;;4973057;28;20049;-61
2024/03/29 07:53:50;;;;;;;2.90;1.40;;;12.10;99.90;;;;;;4972753;28;20093;-62
2024/03/29 07:56:16;;;;;;;2.97;1.65;;;12.20;99.90;;;;;;4974117;28;20081;-61
2024/03/29 07:58:43;;;;;;;2.28;1.30;;;12.20;99.90;;;;;;4976245;28;20050;-61
2024/03/29 08:01:09;;;;;;;3.38;1.55;;;12.30;99.90;;;;;;4975036;28;20217;-62
2024/03/29 08:03:35;;;;;;;5.13;1.63;;;12.60;99.90;;;;;;4979071;28;20081;-61
2024/03/29 08:06:05;;;;;;;3.83;1.30;;;12.60;99.90;;;;;;4971279;28;20054;-62
2024/03/29 08:08:32;;;;;;;4.65;1.55;;;12.60;99.90;;;;;;4979764;28;20104;-61
2024/03/29 08:10:58;;;;;;;2.15;1.23;;;12.60;99.90;;;;;;4977450;28;20050;-61
2024/03/29 08:13:25;;;;;;;2.20;1.15;;;12.60;99.90;;;;;;4990713;28;20058;-61
2024/03/29 08:16:00;;;;;;;1.90;0.93;;;12.60;99.90;;;;;;4974850;28;20059;-61
2024/03/29 08:18:27;;;;;;;3.80;1.30;;;12.70;99.90;;;;;;4972070;28;20053;-61
2024/03/29 08:20:56;;;;;;;3.17;1.40;;;12.90;99.90;;;;;;4978113;28;21476;-59
2024/03/29 08:23:22;;;;;;;2.05;1.38;;;13.00;99.90;;;;;;4971612;28;20697;-62
2024/03/29 08:25:48;;;;;;;3.95;1.23;;;13.10;99.90;;;;;;4978787;28;20081;-60
2024/03/29 08:28:17;;;;;;;2.45;1.40;;;13.20;99.90;;;;;;4995834;28;20046;-62
2024/03/29 08:30:43;;;;;;;3.67;1.83;;;13.20;99.90;;;;;;4971696;28;20396;-61
2024/03/29 08:33:09;;;;;;;3.72;1.60;;;13.40;99.90;;;;;;4978058;28;20058;-61
2024/03/29 08:35:35;;;;;;;3.13;2.42;;;13.60;99.90;;;;;;4977086;28;20065;-61
2024/03/29 08:38:01;;;;;;;3.10;2.30;;;13.70;99.90;;;;;;4972997;28;20188;-62
2024/03/29 08:40:34;;;;;;;3.58;2.05;;;14.00;99.90;;;;;;4974154;28;20458;-62
2024/03/29 08:43:00;;;;;;;3.38;1.98;;;14.20;99.90;;;;;;4979420;28;20447;-62
2024/03/29 08:45:26;;;;;;;2.58;1.63;;;14.50;99.90;;;;;;4977655;28;20056;-62
2024/03/29 08:47:53;;;;;;;4.57;2.10;;;14.60;99.90;;;;;;4978357;28;20058;-60
2024/03/29 08:50:18;;;;;;;3.63;2.05;;;14.70;99.90;;;;;;4974163;28;20519;-61
2024/03/29 08:52:44;;;;;;;3.95;1.98;;;14.80;99.90;;;;;;4973549;28;20098;-62
2024/03/29 08:55:10;;;;;;;3.22;1.33;;;14.90;99.90;;;;;;4976634;28;20050;-62
2024/03/29 08:57:36;;;;;;;3.90;1.77;;;14.90;99.90;;;;;;4977846;28;20046;-60
2024/03/29 09:00:03;;;;;;;3.35;2.00;;;14.90;99.90;;;;;;4974915;28;20132;-62
2024/03/29 09:02:28;;;;;;;4.97;1.50;;;14.90;99.90;;;;;;4963392;28;20054;-61
2024/03/29 09:04:55;;;;;;;1.88;1.23;;;14.90;99.90;;;;;;4973860;28;20065;-61
2024/03/29 09:07:22;;;;;;;2.38;1.45;;;15.10;99.90;;;;;;4968628;28;20066;-62
2024/03/29 09:09:49;;;;;;;2.13;1.10;;;15.20;99.90;;;;;;4969570;28;20085;-60
2024/03/29 09:12:16;;;;;;;1.50;0.98;;;15.30;99.90;;;;;;4970215;28;20058;-62
2024/03/29 09:14:42;;;;;;;1.50;0.85;;;15.50;99.90;;;;;;4971016;28;20066;-62
2024/03/29 09:17:10;;;;;;;3.85;1.10;;;15.60;99.90;;;;;;4969842;28;20050;-62
2024/03/29 09:19:35;;;;;;;4.55;0.77;;;15.60;99.90;;;;;;4972338;28;20054;-62
2024/03/29 09:22:01;;;;;;;1.95;0.80;;;15.80;99.90;;;;;;4972087;28;20050;-61
2024/03/29 09:24:28;;;;;;;1.00;0.73;;;16.10;99.90;;;;;;4975377;28;20054;-57
2024/03/29 09:26:53;;;;;;;1.52;0.80;;;16.30;99.90;;;;;;4976233;28;20046;-60
2024/03/29 09:29:22;;;;;;;1.75;0.90;;;16.50;99.90;;;;;;4971950;28;20053;-59
2024/03/29 09:31:48;;;;;;;1.40;0.77;;;16.60;99.90;;;;;;4970297;28;20061;-60
2024/03/29 09:34:14;;;;;;;1.20;0.65;;;16.60;99.90;;;;;;4968729;28;20638;-60
2024/03/29 09:36:40;;;;;;;1.13;0.85;;;16.50;99.90;;;;;;4973504;28;20673;-60
2024/03/29 09:39:06;;;;;;;1.98;0.85;;;16.40;99.90;;;;;;4975797;28;20054;-60
2024/03/29 09:41:37;;;;;;;1.00;0.50;;;16.50;99.90;;;;;;4969680;28;20130;-60
2024/03/29 09:44:05;;;;;;;1.75;0.82;;;16.50;99.90;;;;;;4971611;28;20051;-59
2024/03/29 09:46:33;;;;;;;0.52;0.35;;;16.50;99.90;;;;;;4971693;28;20042;-57
2024/03/29 09:49:00;;;;;;;0.93;0.60;;;16.50;99.90;;;;;;4997216;28;20101;-58
2024/03/29 09:51:27;;;;;;;2.20;0.57;;;16.60;99.90;;;;;;4975798;28;20656;-60
2024/03/29 09:53:55;;;;;;;0.68;0.40;;;16.80;99.90;;;;;;4971868;28;20050;-59
2024/03/29 09:56:22;;;;;;;0.88;0.60;;;17.00;99.90;;;;;;4970963;28;20043;-59
2024/03/29 09:58:48;;;;;;;1.30;0.60;;;17.20;99.90;;;;;;4970319;28;20055;-61
2024/03/29 10:01:14;;;;;;;1.85;0.55;;;17.50;99.90;;;;;;4972071;28;20058;-59
2024/03/29 10:03:42;;;;;;;1.95;0.50;;;17.60;99.90;;;;;;4972181;28;20050;-61
2024/03/29 10:06:09;;;;;;;1.13;0.57;;;17.70;99.90;;;;;;4975354;28;20057;-62
2024/03/29 10:08:35;;;;;;;3.25;0.80;;;17.80;99.90;;;;;;4974063;28;20061;-62
2024/03/29 10:11:01;;;;;;;0.88;0.70;;;18.00;99.90;;;;;;4971862;28;20082;-62
2024/03/29 10:13:28;;;;;;;2.10;0.88;;;18.00;99.90;;;;;;4972575;28;20065;-60
2024/03/29 10:15:55;;;;;;;1.40;0.60;;;18.10;99.90;;;;;;4974278;28;20051;-61
2024/03/29 10:18:26;;;;;;;4.00;0.80;;;18.20;99.90;;;;;;4976766;28;20108;-61
2024/03/29 10:21:03;;;;;;;2.90;0.68;;;18.10;99.90;;;;;;4974234;28;20046;-61
2024/03/29 10:23:29;;;;;;;2.75;0.70;;;18.10;99.90;;;;;;4973248;28;20058;-62
2024/03/29 10:25:55;;;;;;;3.90;0.70;;;18.00;99.90;;;;;;4951683;28;20895;-62
2024/03/29 10:28:22;;;;;;;0.82;0.50;;;18.00;99.90;;;;;;4972790;28;20061;-61
2024/03/29 10:30:49;;;;;;;1.88;0.70;;;18.10;99.90;;;;;;4965364;28;20049;-61
2024/03/29 10:33:16;;;;;;;1.90;0.63;;;18.00;99.90;;;;;;4979382;28;20058;-62
2024/03/29 10:35:43;;;;;;;1.42;0.50;;;17.90;99.90;;;;;;4975159;28;20050;-62
2024/03/29 10:38:10;;;;;;;4.50;0.90;;;17.80;99.90;;;;;;4978631;28;20046;-62
2024/03/29 10:40:40;;;;;;;1.90;0.40;;;17.90;99.90;;;;;;4976848;28;20039;-62
2024/03/29 10:43:12;;;;;;;1.77;0.77;;;17.90;99.90;;;;;;4978433;28;20050;-62
2024/03/29 10:45:38;;;;;;;1.50;0.65;;;17.80;99.90;;;;;;4976563;28;20105;-62
2024/03/29 10:48:07;;;;;;;0.75;0.40;;;17.80;99.90;;;;;;4975634;28;20054;-62
2024/03/29 10:50:36;;;;;;;1.75;0.80;;;17.80;99.90;;;;;;4975763;28;20050;-62
2024/03/29 10:53:02;;;;;;;1.58;0.60;;;18.00;99.90;;;;;;4971554;28;20581;-62
2024/03/29 10:55:33;;;;;;;3.58;0.60;;;18.00;99.90;;;;;;4971533;28;20062;-62
2024/03/29 10:58:04;;;;;;;3.10;0.77;;;17.80;99.90;;;;;;4979681;28;20046;-62
2024/03/29 11:00:48;;;;;;;1.60;0.65;;;17.70;99.90;;;;;;4967288;28;20440;-62
2024/03/29 11:03:18;;;;;;;1.98;0.63;;;17.70;99.90;;;;;;4974571;28;21104;-63
2024/03/29 11:05:49;;;;;;;4.15;0.90;;;17.80;99.90;;;;;;4977202;28;20447;-62
2024/03/29 11:08:23;;;;;;;1.52;0.47;;;17.80;99.90;;;;;;4978810;28;20065;-62
2024/03/29 11:10:51;;;;;;;2.05;0.73;;;17.80;99.90;;;;;;4977492;28;20062;-62
2024/03/29 11:13:49;;;;;;;1.35;0.60;;;18.20;99.90;;;;;;4976264;28;20063;-62
2024/03/29 11:16:16;;;;;;;5.88;1.10;;;18.40;99.90;;;;;;4964983;28;20479;-62
2024/03/29 11:18:43;;;;;;;2.10;0.60;;;18.50;99.90;;;;;;4972002;28;20673;-62
2024/03/29 11:21:10;;;;;;;1.23;0.50;;;18.60;99.90;;;;;;4971647;28;20058;-62
2024/03/29 11:23:36;;;;;;;1.25;0.70;;;18.50;99.90;;;;;;4969138;28;20042;-62
2024/03/29 11:26:03;;;;;;;1.05;0.50;;;18.50;99.90;;;;;;4975422;28;21175;-62
2024/03/29 11:28:35;;;;;;;0.95;0.55;;;18.60;99.90;;;;;;4975581;28;20055;-62
2024/03/29 11:31:04;;;;;;;1.33;0.65;;;18.40;99.90;;;;;;4975993;28;20406;-62
2024/03/29 11:33:35;;;;;;;4.15;0.63;;;18.40;99.90;;;;;;4974417;28;20058;-62
2024/03/29 11:36:12;;;;;;;1.75;0.50;;;18.30;99.90;;;;;;4974635;28;20057;-62
2024/03/29 11:38:39;;;;;;;1.92;0.63;;;18.20;99.90;;;;;;4981604;28;20046;-62
2024/03/29 11:41:19;;;;;;;3.17;0.50;;;18.40;99.90;;;;;;4965190;28;20057;-62
2024/03/29 11:43:45;;;;;;;1.15;0.40;;;18.80;99.90;;;;;;4978307;28;20406;-63
2024/03/29 11:46:12;;;;;;;1.85;0.80;;;18.90;99.90;;;;;;4976809;28;20064;-63
2024/03/29 11:48:39;;;;;;;2.60;0.80;;;18.80;99.90;;;;;;4978855;28;20058;-63
2024/03/29 11:51:08;;;;;;;3.17;0.90;;;18.60;99.90;;;;;;4981421;28;20676;-62
2024/03/29 11:53:34;;;;;;;1.90;0.70;;;18.50;99.90;;;;;;4979538;28;20164;-62
2024/03/29 11:56:01;;;;;;;1.73;0.82;;;18.40;99.90;;;;;;4976323;28;20058;-63
2024/03/29 11:58:28;;;;;;;1.85;0.77;;;18.30;99.90;;;;;;4981546;28;20043;-63
2024/03/29 12:00:56;;;;;;;0.95;0.40;;;18.20;99.90;;;;;;4977007;28;20050;-62
2024/03/29 12:03:25;;;;;;;5.15;0.80;;;18.20;99.90;;;;;;4981691;28;20046;-62
2024/03/29 12:05:54;;;;;;;2.13;0.50;;;18.10;99.90;;;;;;4981971;28;20069;-63
2024/03/29 12:08:21;;;;;;;0.68;0.43;;;18.10;99.90;;;;;;4978091;28;20077;-63
2024/03/29 12:10:47;;;;;;;2.30;0.40;;;17.90;99.90;;;;;;4978690;28;20050;-63
2024/03/29 12:13:16;;;;;;;1.17;0.50;;;17.90;99.90;;;;;;4979799;28;20097;-63
2024/03/29 12:15:42;;;;;;;1.88;0.60;;;17.90;99.90;;;;;;4976923;28;20042;-63
2024/03/29 12:18:08;;;;;;;0.73;0.55;;;17.90;99.90;;;;;;4980610;28;20482;-63
2024/03/29 12:20:37;;;;;;;2.63;0.85;;;17.90;99.90;;;;;;4973998;28;20043;-63
2024/03/29 12:23:04;;;;;;;1.67;0.82;;;18.00;99.90;;;;;;4993713;28;20046;-63
2024/03/29 12:25:31;;;;;;;2.10;0.60;;;18.00;99.90;;;;;;4978383;28;20058;-63
2024/03/29 12:27:58;;;;;;;4.57;1.00;;;18.00;99.90;;;;;;4977224;28;20050;-63
2024/03/29 12:30:25;;;;;;;2.65;0.90;;;18.10;99.90;;;;;;4983584;28;20062;-63
2024/03/29 12:33:06;;;;;;;1.13;0.63;;;18.00;99.90;;;;;;4982357;28;20054;-63
2024/03/29 12:35:33;;;;;;;3.33;0.75;;;17.70;99.90;;;;;;4976549;28;20050;-63
2024/03/29 12:38:00;;;;;;;2.78;0.80;;;17.80;99.90;;;;;;4978825;28;20069;-63
2024/03/29 12:40:29;;;;;;;2.70;0.93;;;17.90;99.90;;;;;;4979756;28;20499;-63
2024/03/29 12:42:56;;;;;;;3.13;1.10;;;18.00;99.90;;;;;;4984453;28;20426;-63
2024/03/29 12:45:23;;;;;;;2.78;0.93;;;18.10;99.90;;;;;;4977496;28;20392;-63
2024/03/29 12:47:49;;;;;;;3.17;1.00;;;18.20;99.90;;;;;;4979094;28;20058;-63
2024/03/29 12:50:27;;;;;;;4.00;0.80;;;18.20;99.90;;;;;;4982461;28;20062;-63
2024/03/29 12:52:55;;;;;;;2.08;1.00;;;18.30;99.90;;;;;;4973818;28;20055;-63
2024/03/29 12:55:21;;;;;;;2.72;0.80;;;18.50;99.90;;;;;;4975762;28;20058;-63